Time;durP1;ratioP1;P1;durP2;ratioP2;P2;SDS_P1;SDS_P2;PMS_P1;PMS_P2;Temp;Humidity;BMP_temperature;BMP_pressure;BME280_temperature;BME280_humidity;BME280_pressure;Samples;Min_cycle;Max_cycle;Signal;HPM_P1;HPM_P2
2021/07/06 00:00:25;;;;;;;;;;;;;;;14.88;100.00;95656.69;1061312;27;19904;-50
2021/07/06 00:00:55;;;;;;;;;;;;;;;14.89;100.00;95646.88;1060999;27;20391;-49
2021/07/06 00:01:25;;;;;;;;;;;;;;;14.90;100.00;95653.78;1053080;28;19940;-50
2021/07/06 00:01:56;;;;;;;;;;;;;;;14.85;100.00;95654.50;1053207;28;19908;-50
2021/07/06 00:02:26;;;;;;;;;;;;;;;14.85;100.00;95653.66;1053105;28;20343;-50
2021/07/06 00:02:56;;;;;;;;;;;;;;;14.86;100.00;95657.94;1053231;28;19909;-50
2021/07/06 00:03:26;;;;;;;;;;;;;;;14.87;100.00;95654.25;1052962;28;19951;-50
2021/07/06 00:03:57;;;;;;;;;;;;;;;14.86;100.00;95650.00;1052798;28;20264;-49
2021/07/06 00:04:27;;;;;;;;;;;;;;;14.87;100.00;95660.34;1052361;28;20376;-53
2021/07/06 00:05:00;;;;;;;;;;;;;;;14.86;100.00;95664.03;1052818;28;19904;-51
2021/07/06 00:05:31;;;;;;;;;;;;;;;14.86;100.00;95653.44;1052650;28;19900;-51
2021/07/06 00:06:02;;;;;;;;;;;;;;;14.87;100.00;95656.91;1053327;28;19987;-51
2021/07/06 00:06:32;;;;;;;;;;;;;;;14.86;100.00;95656.09;1053275;28;19954;-49
2021/07/06 00:07:02;;;;;;;;;;;;;;;14.88;100.00;95647.94;1053231;28;20262;-52
2021/07/06 00:07:33;;;;;;;;;;;;;;;14.88;100.00;95654.03;1052933;28;20229;-53
2021/07/06 00:08:03;;;;;;;;;;;;;;;14.88;100.00;95653.22;1044638;28;19905;-50
2021/07/06 00:08:33;;;;;;;;;;;;;;;14.86;100.00;95648.13;1044723;28;20381;-49
2021/07/06 00:09:04;;;;;;;;;;;;;;;14.86;100.00;95645.47;1044699;28;20304;-50
2021/07/06 00:09:34;;;;;;;;;;;;;;;14.87;100.00;95657.72;1048684;28;19994;-52
2021/07/06 00:10:05;;;;;;;;;;;;;;;14.89;100.00;95645.06;1053222;28;19908;-51
2021/07/06 00:10:36;;;;;;;;;;;;;;;14.88;100.00;95645.28;1053359;28;20276;-49
2021/07/06 00:11:06;;;;;;;;;;;;;;;14.86;100.00;95642.84;1052864;28;19987;-52
2021/07/06 00:11:36;;;;;;;;;;;;;;;14.83;100.00;95650.47;1052860;28;19905;-53
2021/07/06 00:12:07;;;;;;;;;;;;;;;14.85;100.00;95646.53;1052971;28;19900;-50
2021/07/06 00:12:37;;;;;;;;;;;;;;;14.87;100.00;95646.31;1052903;28;20007;-51
2021/07/06 00:13:07;;;;;;;;;;;;;;;14.83;100.00;95643.31;1052925;28;20368;-50
2021/07/06 00:13:38;;;;;;;;;;;;;;;14.81;100.00;95648.03;1052831;28;19908;-50
2021/07/06 00:14:08;;;;;;;;;;;;;;;14.82;100.00;95646.19;1052881;28;19905;-51
2021/07/06 00:14:38;;;;;;;;;;;;;;;14.84;100.00;95650.22;1052859;28;20430;-52
2021/07/06 00:15:09;;;;;;;;;;;;;;;14.85;100.00;95643.91;1053289;28;19911;-50
2021/07/06 00:15:52;;;;;;;;;;;;;;;14.85;100.00;95638.59;1053137;28;19954;-50
2021/07/06 00:16:22;;;;;;;;;;;;;;;14.84;100.00;95644.94;1052850;28;19912;-51
2021/07/06 00:16:52;;;;;;;;;;;;;;;14.84;100.00;95639.63;1053220;28;19916;-51
2021/07/06 00:17:23;;;;;;;;;;;;;;;14.85;100.00;95643.06;1053153;28;19908;-53
2021/07/06 00:17:53;;;;;;;;;;;;;;;14.84;100.00;95642.28;1053281;28;19938;-53
2021/07/06 00:18:24;;;;;;;;;;;;;;;14.85;100.00;95643.91;1053101;27;20268;-50
2021/07/06 00:18:54;;;;;;;;;;;;;;;14.86;100.00;95645.47;1053398;28;19912;-51
2021/07/06 00:19:24;;;;;;;;;;;;;;;14.88;100.00;95642.63;1053130;28;19916;-53
2021/07/06 00:19:55;;;;;;;;;;;;;;;14.87;100.00;95641.81;1053437;28;20268;-50
2021/07/06 00:20:26;;;;;;;;;;;;;;;14.86;100.00;95639.38;1053260;28;19972;-50
2021/07/06 00:20:58;;;;;;;;;;;;;;;14.86;100.00;95645.47;1053336;28;20368;-51
2021/07/06 00:21:28;;;;;;;;;;;;;;;14.88;100.00;95643.44;1053188;28;19957;-52
2021/07/06 00:21:58;;;;;;;;;;;;;;;14.87;100.00;95641.81;1053372;28;20310;-53
2021/07/06 00:22:29;;;;;;;;;;;;;;;14.88;100.00;95642.63;1053011;28;19923;-51
2021/07/06 00:23:02;;;;;;;;;;;;;;;14.88;100.00;95643.44;1052957;28;19912;-51
2021/07/06 00:23:32;;;;;;;;;;;;;;;14.89;100.00;95636.28;1052937;28;19930;-51
2021/07/06 00:24:02;;;;;;;;;;;;;;;14.91;100.00;95645.59;1048958;28;19912;-51
2021/07/06 00:24:33;;;;;;;;;;;;;;;14.90;100.00;95646.63;1057008;28;19915;-50
2021/07/06 00:25:04;;;;;;;;;;;;;;;14.91;100.00;95640.31;1057224;28;19963;-51
2021/07/06 00:25:34;;;;;;;;;;;;;;;14.92;100.00;95641.94;1057176;28;20041;-51
2021/07/06 00:26:05;;;;;;;;;;;;;;;14.90;100.00;95646.63;1061279;27;19970;-50
2021/07/06 00:26:35;;;;;;;;;;;;;;;14.88;100.00;95640.78;1053090;28;20280;-51
2021/07/06 00:27:05;;;;;;;;;;;;;;;14.89;100.00;95645.06;1053212;28;19912;-50
2021/07/06 00:27:35;;;;;;;;;;;;;;;14.90;100.00;95637.91;1053268;28;19905;-51
2021/07/06 00:28:06;;;;;;;;;;;;;;;14.90;100.00;95641.34;1053255;28;19912;-50
2021/07/06 00:28:36;;;;;;;;;;;;;;;14.89;100.00;95638.91;1053094;28;19912;-51
2021/07/06 00:29:06;;;;;;;;;;;;;;;14.90;100.00;95641.34;1053443;28;19951;-50
2021/07/06 00:29:37;;;;;;;;;;;;;;;14.90;100.00;95638.69;1053191;28;19955;-52
2021/07/06 00:30:07;;;;;;;;;;;;;;;14.89;100.00;95645.06;1053278;28;20018;-51
2021/07/06 00:30:37;;;;;;;;;;;;;;;14.93;100.00;95635.56;1053101;28;19912;-50
2021/07/06 00:31:08;;;;;;;;;;;;;;;14.92;100.00;95636.63;1053250;28;19908;-50
2021/07/06 00:31:38;;;;;;;;;;;;;;;14.90;100.00;95635.25;1053233;28;19919;-50
2021/07/06 00:32:09;;;;;;;;;;;;;;;14.88;100.00;95635.47;1052973;28;20376;-50
2021/07/06 00:32:39;;;;;;;;;;;;;;;14.88;100.00;95635.47;1052922;28;19919;-52
2021/07/06 00:33:09;;;;;;;;;;;;;;;14.91;100.00;95639.50;1052852;28;20391;-50
2021/07/06 00:33:39;;;;;;;;;;;;;;;14.89;100.00;95645.06;1048633;28;19916;-52
2021/07/06 00:34:10;;;;;;;;;;;;;;;14.92;100.00;95641.09;1052888;28;20006;-50
2021/07/06 00:34:40;;;;;;;;;;;;;;;14.90;100.00;95638.69;1052840;28;20335;-52
2021/07/06 00:35:10;;;;;;;;;;;;;;;14.87;100.00;95633.06;1052987;28;19958;-51
2021/07/06 00:35:42;;;;;;;;;;;;;;;14.88;100.00;95642.63;1053079;28;20011;-51
2021/07/06 00:36:12;;;;;;;;;;;;;;;14.86;100.00;95637.53;1053151;28;20360;-50
2021/07/06 00:36:43;;;;;;;;;;;;;;;14.86;100.00;95636.75;1053339;28;19912;-52
2021/07/06 00:37:13;;;;;;;;;;;;;;;14.86;100.00;95632.22;1053053;28;19912;-51
2021/07/06 00:37:44;;;;;;;;;;;;;;;14.85;100.00;95640.41;1053196;28;19916;-51
2021/07/06 00:38:14;;;;;;;;;;;;;;;14.85;100.00;95630.66;1053138;28;19965;-51
2021/07/06 00:38:45;;;;;;;;;;;;;;;14.86;100.00;95631.44;1052899;28;19912;-51
2021/07/06 00:39:15;;;;;;;;;;;;;;;14.88;100.00;95634.69;1053211;28;20329;-51
2021/07/06 00:39:45;;;;;;;;;;;;;;;14.98;100.00;95636.72;1053147;28;19908;-51
2021/07/06 00:40:16;;;;;;;;;;;;;;;14.96;100.00;95631.66;1053240;28;19915;-52
2021/07/06 00:40:46;;;;;;;;;;;;;;;14.93;100.00;95632.91;1053345;28;20277;-51
2021/07/06 00:41:16;;;;;;;;;;;;;;;14.95;100.00;95637.19;1053140;28;20329;-53
2021/07/06 00:41:47;;;;;;;;;;;;;;;15.04;100.00;95631.28;1053177;28;19998;-50
2021/07/06 00:42:17;;;;;;;;;;;;;;;15.04;100.00;95631.28;1052968;28;19909;-51
2021/07/06 00:42:48;;;;;;;;;;;;;;;15.04;100.00;95633.91;1052936;28;19912;-51
2021/07/06 00:43:18;;;;;;;;;;;;;;;15.03;100.00;95629.69;1061357;27;20071;-49
2021/07/06 00:43:48;;;;;;;;;;;;;;;15.03;100.00;95629.69;1061391;27;19946;-51
2021/07/06 00:44:19;;;;;;;;;;;;;;;15.12;100.00;95619.47;1065497;27;19947;-51
2021/07/06 00:44:50;;;;;;;;;;;;;;;15.09;99.75;95625.25;1065364;27;20013;-52
2021/07/06 00:45:20;;;;;;;;;;;;;;;15.07;99.44;95622.06;1053158;28;19912;-54
2021/07/06 00:45:53;;;;;;;;;;;;;;;15.06;99.43;95631.03;1061160;27;20243;-52
2021/07/06 00:46:23;;;;;;;;;;;;;;;15.05;99.63;95629.44;1057030;28;19916;-51
2021/07/06 00:46:53;;;;;;;;;;;;;;;15.03;99.81;95624.38;1057042;28;19916;-51
2021/07/06 00:47:33;;;;;;;;;;;;;;;15.05;99.24;95624.94;1056496;28;19915;-53
2021/07/06 00:48:04;;;;;;;;;;;;;;;15.02;98.41;95621.97;1052913;28;19963;-51
2021/07/06 00:48:34;;;;;;;;;;;;;;;15.02;99.01;95627.25;1057025;28;20388;-53
2021/07/06 00:49:04;;;;;;;;;;;;;;;15.04;98.54;95623.31;1058717;27;19958;-51
2021/07/06 00:49:35;;;;;;;;;;;;;;;15.01;98.57;95623.78;1061188;27;20349;-51
2021/07/06 00:50:07;;;;;;;;;;;;;;;15.00;99.11;95624.03;1061325;27;19927;-51
2021/07/06 00:50:37;;;;;;;;;;;;;;;14.96;99.36;95618.41;1053125;28;19923;-52
2021/07/06 00:51:07;;;;;;;;;;;;;;;14.89;99.86;95615.06;1061340;27;19934;-51
2021/07/06 00:51:38;;;;;;;;;;;;;;;14.86;100.00;95621.63;1061233;27;20010;-51
2021/07/06 00:52:08;;;;;;;;;;;;;;;14.87;99.90;95612.66;1061359;27;19918;-50
2021/07/06 00:52:38;;;;;;;;;;;;;;;14.85;99.88;95625.34;1052719;28;19912;-50
2021/07/06 00:53:08;;;;;;;;;;;;;;;14.92;100.00;95618.06;1048581;28;20365;-51
2021/07/06 00:53:39;;;;;;;;;;;;;;;15.00;100.00;95610.78;1048528;28;20012;-54
2021/07/06 00:54:11;;;;;;;;;;;;;;;15.07;99.74;95616.75;1048699;28;19912;-51
2021/07/06 00:54:41;;;;;;;;;;;;;;;15.03;99.27;95612.94;1053155;28;19912;-52
2021/07/06 00:55:11;;;;;;;;;;;;;;;15.00;98.97;95619.53;1053263;28;19908;-50
2021/07/06 00:55:42;;;;;;;;;;;;;;;15.06;99.17;95620.44;1053149;28;19916;-51
2021/07/06 00:56:12;;;;;;;;;;;;;;;15.16;98.84;95615.34;1061227;28;20015;-51
2021/07/06 00:56:44;;;;;;;;;;;;;;;15.12;98.53;95619.47;1061364;27;19912;-50
2021/07/06 00:57:14;;;;;;;;;;;;;;;15.06;99.58;95618.59;1061275;27;20318;-53
2021/07/06 00:57:44;;;;;;;;;;;;;;;15.05;99.31;95614.34;1056755;28;19912;-51
2021/07/06 00:58:15;;;;;;;;;;;;;;;15.01;98.61;95605.22;1048600;28;20035;-50
2021/07/06 00:58:48;;;;;;;;;;;;;;;14.99;98.56;95611.84;1052761;28;19934;-51
2021/07/06 00:59:19;;;;;;;;;;;;;;;15.05;100.00;95619.63;1053188;28;19912;-52
2021/07/06 00:59:49;;;;;;;;;;;;;;;15.04;100.00;95615.38;1057172;28;19912;-51
2021/07/06 01:00:20;;;;;;;;;;;;;;;15.02;99.23;95619.31;1056307;28;19911;-51
2021/07/06 01:00:51;;;;;;;;;;;;;;;15.00;98.54;95616.06;1052622;28;19912;-54
2021/07/06 01:01:21;;;;;;;;;;;;;;;15.00;98.81;95611.59;1052462;28;19912;-51
2021/07/06 01:01:52;;;;;;;;;;;;;;;15.01;98.44;95612.38;1052812;28;19919;-50
2021/07/06 01:02:22;;;;;;;;;;;;;;;15.00;98.43;95614.25;1052712;28;20333;-50
2021/07/06 01:02:52;;;;;;;;;;;;;;;14.99;98.17;95612.63;1051445;28;19916;-51
2021/07/06 01:03:23;;;;;;;;;;;;;;;15.00;98.06;95605.47;1051272;28;19969;-57
2021/07/06 01:03:53;;;;;;;;;;;;;;;14.99;98.19;95609.19;1050519;28;20023;-54
2021/07/06 01:04:23;;;;;;;;;;;;;;;14.98;98.71;95612.84;1052963;28;19908;-50
2021/07/06 01:04:53;;;;;;;;;;;;;;;14.98;99.44;95605.69;1052810;28;19912;-51
2021/07/06 01:05:24;;;;;;;;;;;;;;;14.97;99.19;95605.94;1053130;28;19912;-51
2021/07/06 01:05:54;;;;;;;;;;;;;;;15.04;99.47;95607.41;1052990;28;20372;-53
2021/07/06 01:06:24;;;;;;;;;;;;;;;15.01;98.90;95601.78;1053225;28;19916;-54
2021/07/06 01:06:55;;;;;;;;;;;;;;;15.02;100.00;95606.84;1053140;28;19921;-50
2021/07/06 01:07:25;;;;;;;;;;;;;;;15.00;98.74;95601.00;1053070;28;19912;-53
2021/07/06 01:07:55;;;;;;;;;;;;;;;14.97;98.67;95605.94;1052995;28;19912;-50
2021/07/06 01:08:26;;;;;;;;;;;;;;;14.97;99.18;95605.94;1053181;28;19927;-53
2021/07/06 01:08:56;;;;;;;;;;;;;;;14.96;98.51;95605.16;1053129;28;20352;-51
2021/07/06 01:09:26;;;;;;;;;;;;;;;14.99;99.52;95602.03;1053151;28;20021;-51
2021/07/06 01:09:57;;;;;;;;;;;;;;;14.97;99.27;95598.00;1052670;28;19912;-51
2021/07/06 01:10:27;;;;;;;;;;;;;;;14.97;99.12;95606.75;1052847;28;20361;-51
2021/07/06 01:10:57;;;;;;;;;;;;;;;15.01;99.76;95601.78;1052744;28;19904;-52
2021/07/06 01:11:28;;;;;;;;;;;;;;;15.00;98.89;95594.88;1048608;28;19912;-51
2021/07/06 01:11:58;;;;;;;;;;;;;;;14.97;98.97;95595.34;1052679;28;19920;-51
2021/07/06 01:12:31;;;;;;;;;;;;;;;14.95;98.57;95597.44;1052851;28;20351;-51
2021/07/06 01:13:01;;;;;;;;;;;;;;;14.98;98.89;95595.09;1052855;28;19916;-54
2021/07/06 01:13:33;;;;;;;;;;;;;;;15.01;98.86;95591.19;1052816;28;19908;-53
2021/07/06 01:14:03;;;;;;;;;;;;;;;14.99;99.03;95593.28;1048445;28;19920;-51
2021/07/06 01:14:34;;;;;;;;;;;;;;;14.98;99.95;95595.09;1048470;28;20353;-50
2021/07/06 01:15:05;;;;;;;;;;;;;;;14.96;99.65;95596.41;1048836;28;20389;-50
2021/07/06 01:15:36;;;;;;;;;;;;;;;14.96;100.00;95593.75;1052802;28;19912;-51
2021/07/06 01:16:06;;;;;;;;;;;;;;;14.92;99.05;95590.75;1052901;28;19973;-50
2021/07/06 01:16:36;;;;;;;;;;;;;;;14.90;98.95;95593.63;1053667;28;20288;-52
2021/07/06 01:17:08;;;;;;;;;;;;;;;14.90;98.39;95595.47;1053764;28;19968;-52
2021/07/06 01:17:39;;;;;;;;;;;;;;;14.89;98.73;95588.56;1062027;27;19907;-53
2021/07/06 01:18:18;;;;;;;;;;;;;;;14.90;98.36;95584.88;1061922;27;19956;-54
2021/07/06 01:18:49;;;;;;;;;;;;;;;14.88;98.22;95581.66;1061976;27;20001;-51
2021/07/06 01:19:19;;;;;;;;;;;;;;;14.86;98.57;95592.47;1056256;28;19974;-51
2021/07/06 01:19:49;;;;;;;;;;;;;;;14.90;99.47;95590.97;1053601;28;19915;-54
2021/07/06 01:20:22;;;;;;;;;;;;;;;14.90;99.48;95590.19;1053571;28;19997;-50
2021/07/06 01:22:41;;;;;;;;;;;;;;;14.77;99.08;95580.63;1053910;28;20060;-51
2021/07/06 01:23:11;;;;;;;;;;;;;;;14.74;99.27;95581.94;1053368;28;20361;-51
2021/07/06 01:23:42;;;;;;;;;;;;;;;14.73;99.56;95582.97;1053796;28;19951;-52
2021/07/06 01:24:12;;;;;;;;;;;;;;;14.70;99.91;95577.34;1053598;28;20056;-51
2021/07/06 01:24:42;;;;;;;;;;;;;;;14.70;99.99;95580.00;1053922;28;20369;-50
2021/07/06 01:25:13;;;;;;;;;;;;;;;14.66;100.00;95573.53;1053731;28;19912;-50
2021/07/06 01:25:43;;;;;;;;;;;;;;;14.61;100.00;95573.44;1053472;28;19908;-50
2021/07/06 01:26:14;;;;;;;;;;;;;;;14.63;100.00;95581.94;1053365;28;19916;-50
2021/07/06 01:26:44;;;;;;;;;;;;;;;14.63;100.00;95572.16;1053423;28;19920;-53
2021/07/06 01:27:14;;;;;;;;;;;;;;;14.63;100.00;95576.66;1053443;28;19912;-51
2021/07/06 01:27:45;;;;;;;;;;;;;;;14.65;99.94;95582.50;1053859;28;19904;-54
2021/07/06 01:28:15;;;;;;;;;;;;;;;14.64;100.00;95576.41;1054098;28;19943;-53
2021/07/06 01:28:45;;;;;;;;;;;;;;;14.63;100.00;95574.81;1053627;28;19920;-53
2021/07/06 01:29:15;;;;;;;;;;;;;;;14.65;100.00;95574.56;1053650;28;19931;-52
2021/07/06 01:29:46;;;;;;;;;;;;;;;14.64;100.00;95570.31;1053567;28;19974;-50
2021/07/06 01:30:16;;;;;;;;;;;;;;;14.64;100.00;95573.78;1053668;28;19912;-50
2021/07/06 01:30:46;;;;;;;;;;;;;;;14.67;100.00;95575.16;1053670;28;20398;-51
2021/07/06 01:31:17;;;;;;;;;;;;;;;14.65;100.00;95563.97;1053653;28;19935;-50
2021/07/06 01:31:48;;;;;;;;;;;;;;;14.69;100.00;95573.06;1053643;28;20330;-50
2021/07/06 01:32:18;;;;;;;;;;;;;;;14.69;100.00;95570.41;1049629;28;19956;-50
2021/07/06 01:32:49;;;;;;;;;;;;;;;14.63;100.00;95566.84;1053634;28;19912;-52
2021/07/06 01:33:20;;;;;;;;;;;;;;;14.64;100.00;95565.81;1053582;28;19999;-52
2021/07/06 01:33:50;;;;;;;;;;;;;;;14.61;100.00;95558.34;1053704;28;20010;-53
2021/07/06 01:34:20;;;;;;;;;;;;;;;14.60;100.00;95561.19;1053321;28;19977;-54
2021/07/06 01:34:51;;;;;;;;;;;;;;;14.61;100.00;95560.19;1053673;28;19958;-52
2021/07/06 01:35:21;;;;;;;;;;;;;;;14.56;100.00;95558.19;1053579;28;19912;-51
2021/07/06 01:35:52;;;;;;;;;;;;;;;14.53;100.00;95548.88;1053534;28;19909;-51
2021/07/06 01:36:23;;;;;;;;;;;;;;;14.51;100.00;95558.91;1057767;28;19916;-51
2021/07/06 01:36:54;;;;;;;;;;;;;;;14.50;100.00;95548.53;1058136;27;19912;-50
2021/07/06 01:37:25;;;;;;;;;;;;;;;14.49;100.00;95542.44;1062154;27;19966;-50
2021/07/06 01:37:57;;;;;;;;;;;;;;;14.50;100.00;95556.47;1061289;27;19946;-51
2021/07/06 01:38:27;;;;;;;;;;;;;;;14.48;100.00;95548.78;1053957;28;19995;-50
2021/07/06 01:38:57;;;;;;;;;;;;;;;14.46;100.00;95550.84;1053917;28;19908;-50
2021/07/06 01:39:29;;;;;;;;;;;;;;;14.47;100.00;95552.47;1053944;28;19916;-53
2021/07/06 01:40:00;;;;;;;;;;;;;;;14.46;100.00;95556.16;1053937;28;20292;-50
2021/07/06 01:40:30;;;;;;;;;;;;;;;14.44;100.00;95544.16;1053926;28;19912;-49
2021/07/06 01:41:00;;;;;;;;;;;;;;;14.45;100.00;95554.53;1053981;28;19915;-50
2021/07/06 01:41:31;;;;;;;;;;;;;;;14.44;100.00;95552.94;1053886;28;19919;-53
2021/07/06 01:42:01;;;;;;;;;;;;;;;14.45;100.00;95557.19;1053842;28;19916;-53
2021/07/06 01:42:32;;;;;;;;;;;;;;;14.45;100.00;95551.88;1053967;28;20378;-50
2021/07/06 01:43:03;;;;;;;;;;;;;;;14.45;100.00;95551.88;1062102;27;19947;-50
2021/07/06 01:43:33;;;;;;;;;;;;;;;14.48;100.00;95550.63;1062175;27;19921;-53
2021/07/06 01:44:03;;;;;;;;;;;;;;;14.47;100.00;95549.81;1057902;28;20671;-54
2021/07/06 01:44:34;;;;;;;;;;;;;;;14.47;100.00;95556.94;1057685;28;19912;-52
2021/07/06 01:45:05;;;;;;;;;;;;;;;14.45;100.00;95553.75;1053731;28;19912;-51
2021/07/06 01:45:35;;;;;;;;;;;;;;;14.46;100.00;95550.84;1053765;28;19912;-52
2021/07/06 01:46:05;;;;;;;;;;;;;;;14.40;100.00;95554.44;1053806;28;19913;-50
2021/07/06 01:46:39;;;;;;;;;;;;;;;14.42;100.00;95551.56;1053877;28;19912;-52
2021/07/06 01:47:09;;;;;;;;;;;;;;;14.43;100.00;95555.81;1053831;28;19916;-50
2021/07/06 01:47:46;;;;;;;;;;;;;;;14.41;100.00;95556.06;1053592;28;20355;-50
2021/07/06 01:48:17;;;;;;;;;;;;;;;14.41;100.00;95558.72;1053755;28;19916;-50
2021/07/06 01:48:47;;;;;;;;;;;;;;;14.39;100.00;95551.00;1053633;28;19912;-51
2021/07/06 01:49:18;;;;;;;;;;;;;;;14.38;100.00;95552.03;1050367;28;20285;-53
2021/07/06 01:49:48;;;;;;;;;;;;;;;14.39;100.00;95552.81;1053415;28;20240;-50
2021/07/06 01:50:19;;;;;;;;;;;;;;;14.40;100.00;95557.88;1053709;28;19908;-51
2021/07/06 01:50:49;;;;;;;;;;;;;;;14.39;100.00;95552.81;1053517;28;19908;-51
2021/07/06 01:51:20;;;;;;;;;;;;;;;14.38;100.00;95556.53;1053637;28;19919;-52
2021/07/06 01:51:50;;;;;;;;;;;;;;;14.40;100.00;95559.72;1057613;28;20005;-53
2021/07/06 01:52:20;;;;;;;;;;;;;;;14.38;100.00;95551.22;1057889;28;19912;-53
2021/07/06 01:52:51;;;;;;;;;;;;;;;14.44;100.00;95558.25;1057868;28;19911;-53
2021/07/06 01:53:22;;;;;;;;;;;;;;;14.50;100.00;95557.31;1061740;27;20055;-53
2021/07/06 01:53:52;;;;;;;;;;;;;;;14.48;100.00;95562.00;1053835;28;19940;-51
2021/07/06 01:54:23;;;;;;;;;;;;;;;14.45;100.00;95559.84;1053722;28;19916;-51
2021/07/06 01:54:53;;;;;;;;;;;;;;;14.43;100.00;95563.78;1053896;28;19912;-53
2021/07/06 01:55:25;;;;;;;;;;;;;;;14.43;100.00;95559.25;1053929;28;19912;-51
2021/07/06 01:55:55;;;;;;;;;;;;;;;14.47;100.00;95554.31;1053730;28;19951;-53
2021/07/06 01:56:25;;;;;;;;;;;;;;;14.43;100.00;95559.25;1054020;28;20271;-50
2021/07/06 01:56:56;;;;;;;;;;;;;;;14.43;100.00;95553.97;1053770;28;19904;-50
2021/07/06 01:57:26;;;;;;;;;;;;;;;14.42;100.00;95552.34;1053871;28;19904;-51
2021/07/06 01:57:57;;;;;;;;;;;;;;;14.40;100.00;95552.59;1053409;28;20372;-52
2021/07/06 01:58:28;;;;;;;;;;;;;;;14.39;100.00;95552.81;1053526;28;20256;-53
2021/07/06 01:58:58;;;;;;;;;;;;;;;14.39;100.00;95555.47;1053598;28;19901;-51
2021/07/06 01:59:28;;;;;;;;;;;;;;;14.37;100.00;95554.91;1053379;28;19912;-53
2021/07/06 01:59:59;;;;;;;;;;;;;;;14.34;100.00;95550.88;1053595;28;19995;-53
2021/07/06 02:00:30;;;;;;;;;;;;;;;14.34;100.00;95550.88;1053868;28;19908;-53
2021/07/06 02:01:00;;;;;;;;;;;;;;;14.33;100.00;95548.44;1053868;28;19940;-53
2021/07/06 02:01:30;;;;;;;;;;;;;;;14.30;100.00;95544.44;1053832;28;19949;-52
2021/07/06 02:02:01;;;;;;;;;;;;;;;14.36;100.00;95545.34;1053751;28;19911;-53
2021/07/06 02:02:31;;;;;;;;;;;;;;;14.34;100.00;95550.88;1053852;28;19919;-51
2021/07/06 02:03:01;;;;;;;;;;;;;;;14.34;100.00;95550.06;1053867;28;19904;-51
2021/07/06 02:03:32;;;;;;;;;;;;;;;14.30;100.00;95543.63;1053851;28;19915;-51
2021/07/06 02:04:03;;;;;;;;;;;;;;;14.27;100.00;95557.31;1053777;28;19915;-50
2021/07/06 02:04:33;;;;;;;;;;;;;;;14.27;100.00;95538.78;1053560;28;19991;-50
2021/07/06 02:05:07;;;;;;;;;;;;;;;14.28;100.00;95548.34;1053877;28;19908;-53
2021/07/06 02:05:39;;;;;;;;;;;;;;;14.30;100.00;95543.63;1053869;28;19905;-50
2021/07/06 02:06:09;;;;;;;;;;;;;;;14.28;100.00;95548.34;1053655;28;19960;-51
2021/07/06 02:06:40;;;;;;;;;;;;;;;14.25;100.00;95548.81;1053791;28;19965;-51
2021/07/06 02:07:10;;;;;;;;;;;;;;;14.27;100.00;95538.78;1053806;28;19905;-53
2021/07/06 02:07:41;;;;;;;;;;;;;;;14.28;100.00;95537.75;1053350;28;20380;-54
2021/07/06 02:08:15;;;;;;;;;;;;;;;14.29;100.00;95542.03;1053477;28;20064;-51
2021/07/06 02:08:45;;;;;;;;;;;;;;;14.29;100.00;95540.19;1053502;28;20418;-53
2021/07/06 02:09:16;;;;;;;;;;;;;;;14.27;100.00;95539.63;1053537;28;19934;-51
2021/07/06 02:09:46;;;;;;;;;;;;;;;14.27;100.00;95538.78;1053831;28;19904;-51
2021/07/06 02:10:18;;;;;;;;;;;;;;;14.28;100.00;95537.75;1054246;28;20357;-52
2021/07/06 02:10:50;;;;;;;;;;;;;;;14.26;100.00;95534.56;1053957;28;19924;-50
2021/07/06 02:11:20;;;;;;;;;;;;;;;14.27;100.00;95544.09;1053881;28;20404;-50
2021/07/06 02:11:50;;;;;;;;;;;;;;;14.26;100.00;95537.19;1053769;28;19938;-52
2021/07/06 02:12:20;;;;;;;;;;;;;;;14.26;100.00;95534.56;1053837;28;19915;-51
2021/07/06 02:12:51;;;;;;;;;;;;;;;14.28;100.00;95533.25;1053753;28;19900;-52
2021/07/06 02:13:22;;;;;;;;;;;;;;;14.30;100.00;95538.31;1053848;28;19964;-50
2021/07/06 02:13:52;;;;;;;;;;;;;;;14.29;100.00;95531.44;1053361;28;19900;-50
2021/07/06 02:14:23;;;;;;;;;;;;;;;14.25;100.00;95530.28;1053335;28;19908;-50
2021/07/06 02:14:53;;;;;;;;;;;;;;;14.25;100.00;95536.38;1053494;28;20361;-50
2021/07/06 02:15:23;;;;;;;;;;;;;;;14.33;100.00;95535.22;1053627;28;19954;-51
2021/07/06 02:15:54;;;;;;;;;;;;;;;14.33;100.00;95530.75;1053658;28;20360;-50
2021/07/06 02:16:24;;;;;;;;;;;;;;;14.33;100.00;95532.56;1053768;28;20376;-50
2021/07/06 02:16:55;;;;;;;;;;;;;;;14.30;100.00;95533.03;1053283;28;20368;-53
2021/07/06 02:17:25;;;;;;;;;;;;;;;14.28;100.00;95529.81;1053404;28;19948;-52
2021/07/06 02:17:55;;;;;;;;;;;;;;;14.27;100.00;95530.84;1053419;28;19912;-52
2021/07/06 02:18:27;;;;;;;;;;;;;;;14.19;100.00;95524.88;1049233;28;19909;-53
2021/07/06 02:18:58;;;;;;;;;;;;;;;14.25;100.00;95532.94;1053543;28;20323;-53
2021/07/06 02:19:28;;;;;;;;;;;;;;;14.24;100.00;95532.09;1053324;28;19997;-50
2021/07/06 02:19:58;;;;;;;;;;;;;;;14.23;100.00;95533.16;1053409;28;19973;-52
2021/07/06 02:20:29;;;;;;;;;;;;;;;14.24;100.00;95532.09;1053782;28;19915;-50
2021/07/06 02:20:59;;;;;;;;;;;;;;;14.25;100.00;95530.28;1062025;27;20044;-51
2021/07/06 02:21:29;;;;;;;;;;;;;;;14.24;100.00;95533.97;1061811;27;19995;-52
2021/07/06 02:22:00;;;;;;;;;;;;;;;14.24;100.00;95533.97;1061822;27;20352;-51
2021/07/06 02:22:30;;;;;;;;;;;;;;;14.28;100.00;95530.63;1061769;27;19904;-51
2021/07/06 02:23:06;;;;;;;;;;;;;;;14.27;100.00;95530.84;1053368;28;19908;-51
2021/07/06 02:23:36;;;;;;;;;;;;;;;14.24;100.00;95539.25;1053455;28;19914;-53
2021/07/06 02:24:07;;;;;;;;;;;;;;;14.17;100.00;95537.53;1053233;28;19904;-54
2021/07/06 02:24:37;;;;;;;;;;;;;;;14.18;100.00;95539.16;1049928;28;19939;-50
2021/07/06 02:25:08;;;;;;;;;;;;;;;14.19;100.00;95538.09;1053474;28;19908;-51
2021/07/06 02:25:38;;;;;;;;;;;;;;;14.19;100.00;95537.31;1053461;28;19916;-51
2021/07/06 02:26:08;;;;;;;;;;;;;;;14.17;100.00;95534.91;1053241;28;19912;-53
2021/07/06 02:26:39;;;;;;;;;;;;;;;14.14;100.00;95532.72;1053816;28;19973;-51
2021/07/06 02:27:09;;;;;;;;;;;;;;;14.16;100.00;95538.56;1053412;28;19916;-53
2021/07/06 02:27:40;;;;;;;;;;;;;;;14.20;100.00;95523.84;1053645;28;20359;-51
2021/07/06 02:28:10;;;;;;;;;;;;;;;14.19;100.00;95526.72;1053672;28;19912;-51
2021/07/06 02:28:40;;;;;;;;;;;;;;;14.18;100.00;95523.28;1053731;28;19915;-50
2021/07/06 02:29:11;;;;;;;;;;;;;;;14.18;100.00;95531.22;1053667;28;19909;-50
2021/07/06 02:29:41;;;;;;;;;;;;;;;14.17;100.00;95531.44;1053740;28;19942;-50
2021/07/06 02:30:12;;;;;;;;;;;;;;;14.14;100.00;95529.28;1053659;28;20422;-51
2021/07/06 02:30:42;;;;;;;;;;;;;;;14.18;100.00;95525.09;1053686;28;20364;-52
2021/07/06 02:31:12;;;;;;;;;;;;;;;14.15;100.00;95526.38;1053744;28;19904;-51
2021/07/06 02:31:42;;;;;;;;;;;;;;;14.13;100.00;95530.28;1053535;28;19915;-51
2021/07/06 02:32:13;;;;;;;;;;;;;;;14.12;100.00;95526.03;1053626;28;19915;-52
2021/07/06 02:32:43;;;;;;;;;;;;;;;14.13;100.00;95532.94;1053728;28;19908;-50
2021/07/06 02:33:13;;;;;;;;;;;;;;;14.11;100.00;95529.72;1053633;28;20357;-50
2021/07/06 02:33:44;;;;;;;;;;;;;;;14.11;100.00;95527.88;1053481;28;19920;-52
2021/07/06 02:34:14;;;;;;;;;;;;;;;14.11;100.00;95522.59;1053521;28;19904;-51
2021/07/06 02:34:44;;;;;;;;;;;;;;;14.15;100.00;95528.22;1053314;28;20003;-52
2021/07/06 02:35:15;;;;;;;;;;;;;;;14.14;100.00;95527.41;1053377;28;19979;-53
2021/07/06 02:35:46;;;;;;;;;;;;;;;14.13;100.00;95527.66;1053129;28;19908;-53
2021/07/06 02:36:16;;;;;;;;;;;;;;;14.10;100.00;95522.81;1053341;28;20403;-51
2021/07/06 02:36:46;;;;;;;;;;;;;;;14.10;100.00;95526.25;1053739;28;19918;-50
2021/07/06 02:37:17;;;;;;;;;;;;;;;14.11;100.00;95521.78;1053479;28;20253;-51
2021/07/06 02:37:48;;;;;;;;;;;;;;;14.10;100.00;95517.53;1053580;28;20003;-51
2021/07/06 02:38:18;;;;;;;;;;;;;;;14.08;100.00;95520.41;1053552;28;19908;-53
2021/07/06 02:38:48;;;;;;;;;;;;;;;14.04;100.00;95519.25;1053745;28;19912;-53
2021/07/06 02:39:19;;;;;;;;;;;;;;;14.05;100.00;95518.22;1053741;28;19958;-50
2021/07/06 02:39:49;;;;;;;;;;;;;;;14.02;100.00;95526.63;1053587;28;19912;-51